Time;durP1;ratioP1;P1;durP2;ratioP2;P2;SDS_P1;SDS_P2;PMS_P1;PMS_P2;Temp;Humidity;BMP_temperature;BMP_pressure;BME280_temperature;BME280_humidity;BME280_pressure;Samples;Min_cycle;Max_cycle;Signal;HPM_P1;HPM_P2
2021/07/08 00:00:56;;;;;;;9.57;8.70;;;;;;;26.50;50.99;99658.91;5032841;28;20018;-75
2021/07/08 00:03:22;;;;;;;10.02;9.02;;;;;;;26.84;50.76;99714.00;5032800;28;20391;-75
2021/07/08 00:05:47;;;;;;;9.70;8.68;;;;;;;26.28;50.68;99629.50;5032848;28;20025;-76
2021/07/08 00:08:13;;;;;;;10.55;9.30;;;;;;;26.86;50.88;99724.53;5032621;28;20036;-75
2021/07/08 00:10:48;;;;;;;10.00;9.10;;;;;;;26.57;51.31;99697.34;5032384;28;20028;-77
2021/07/08 00:13:15;;;;;;;9.48;8.60;;;;;;;26.70;51.36;99728.41;5032102;28;20111;-76
2021/07/08 00:15:41;;;;;;;10.38;9.18;;;;;;;26.70;51.24;99731.13;5032593;28;20485;-73
2021/07/08 00:18:08;;;;;;;10.10;9.20;;;;;;;26.21;51.16;99658.78;5032453;28;20052;-77
2021/07/08 00:20:36;;;;;;;10.57;9.43;;;;;;;26.64;51.25;99734.94;5032499;28;20022;-74
2021/07/08 00:23:02;;;;;;;9.82;8.93;;;;;;;26.14;51.38;99661.78;5032462;28;20033;-76
2021/07/08 00:25:33;;;;;;;10.55;9.45;;;;;;;26.59;51.49;99738.47;5032191;28;20033;-75
2021/07/08 00:27:59;;;;;;;;;;;;;;;26.34;51.97;99741.31;5032875;28;20510;-75
2021/07/08 00:30:25;;;;;;;11.35;8.80;;;;;;;26.45;51.72;99746.41;5031085;28;19909;-75
2021/07/08 00:32:51;;;;;;;9.45;8.65;;;;;;;26.49;51.57;99736.63;5032261;28;20033;-74
2021/07/08 00:35:17;;;;;;;10.80;9.75;;;;;;;26.13;51.49;99681.00;5032313;28;20021;-76
2021/07/08 00:37:43;;;;;;;11.05;9.95;;;;;;;26.29;51.43;99705.03;5032071;28;20120;-75
2021/07/08 00:40:12;;;;;;;10.10;9.18;;;;;;;26.50;51.45;99729.31;5031997;28;20501;-76
2021/07/08 00:42:38;;;;;;;10.43;9.43;;;;;;;26.23;51.76;99694.50;5031764;28;20038;-74
2021/07/08 00:45:05;;;;;;;10.95;10.05;;;;;;;26.37;51.71;99725.31;5031996;28;20041;-75
2021/07/08 00:47:31;;;;;;;10.70;9.02;;;;;;;26.45;51.45;99759.94;5031959;28;20076;-75
2021/07/08 00:49:56;;;;;;;9.48;8.50;;;;;;;26.34;51.72;99723.16;5031855;28;20021;-75
2021/07/08 00:52:22;;;;;;;10.23;9.27;;;;;;;26.38;51.78;99742.38;5031744;28;20025;-75
2021/07/08 00:54:47;;;;;;;10.20;9.40;;;;;;;26.23;51.67;99722.38;5032105;28;20028;-75
2021/07/08 00:57:13;;;;;;;9.63;8.65;;;;;;;26.35;52.00;99743.75;5031880;28;20521;-74
2021/07/08 00:59:43;;;;;;;13.93;9.65;;;;;;;26.24;51.93;99729.41;5031873;28;20025;-75
2021/07/08 01:02:13;;;;;;;10.18;9.27;;;;;;;26.32;51.87;99743.44;5032030;28;20028;-76
2021/07/08 01:04:40;;;;;;;10.80;9.82;;;;;;;26.33;52.40;99745.91;5031843;28;20409;-75
2021/07/08 01:07:06;;;;;;;10.82;9.70;;;;;;;26.33;52.21;99745.91;5031694;28;20021;-75
2021/07/08 01:09:31;;;;;;;11.05;10.13;;;;;;;26.33;51.87;99735.09;5031660;28;20083;-75
2021/07/08 01:11:57;;;;;;;10.80;9.70;;;;;;;26.10;51.96;99706.72;5031403;28;20022;-75
2021/07/08 01:14:22;;;;;;;11.02;9.93;;;;;;;25.75;51.98;99648.09;5031522;28;20021;-74
2021/07/08 01:16:47;;;;;;;10.98;10.00;;;;;;;26.23;52.31;99727.78;5031592;28;20101;-76
2021/07/08 01:19:13;;;;;;;12.30;10.63;;;;;;;25.67;52.17;99635.16;5031682;28;20022;-76
2021/07/08 01:21:38;;;;;;;11.73;10.55;;;;;;;25.92;52.32;99683.75;5031494;28;20108;-74
2021/07/08 01:24:06;;;;;;;11.43;10.20;;;;;;;25.87;52.17;99682.97;5031585;28;20080;-75
2021/07/08 01:26:32;;;;;;;10.73;9.63;;;;;;;26.31;52.50;99744.53;5031622;28;20045;-75
2021/07/08 01:28:58;;;;;;;10.88;9.82;;;;;;;25.99;52.38;99697.00;5031366;28;20537;-76
2021/07/08 01:31:26;;;;;;;10.48;9.57;;;;;;;26.25;52.47;99741.84;5031210;28;20026;-75
2021/07/08 01:33:52;;;;;;;10.52;9.43;;;;;;;26.17;52.59;99731.59;5031305;28;20052;-75
2021/07/08 01:36:18;;;;;;;13.65;9.95;;;;;;;26.24;52.57;99752.94;5031048;28;20025;-76
2021/07/08 01:38:44;;;;;;;11.27;10.18;;;;;;;26.18;52.35;99741.34;5031132;28;20033;-76
2021/07/08 01:41:10;;;;;;;11.77;10.55;;;;;;;25.64;52.25;99666.22;5031133;28;20095;-75
2021/07/08 01:43:39;;;;;;;11.73;10.65;;;;;;;26.15;52.37;99754.59;5031204;28;20026;-76
2021/07/08 01:46:05;;;;;;;11.32;10.25;;;;;;;25.96;53.06;99751.66;5031300;28;20121;-76
2021/07/08 01:48:32;;;;;;;11.20;10.10;;;;;;;25.58;53.03;99709.75;5029959;28;20040;-76
2021/07/08 01:51:06;;;;;;;12.15;10.95;;;;;;;25.64;53.09;99724.91;5030962;28;20047;-75
2021/07/08 01:53:31;;;;;;;11.35;10.27;;;;;;;25.42;52.97;99686.53;5031009;28;20083;-73
2021/07/08 01:55:57;;;;;;;12.02;10.70;;;;;;;25.83;53.11;99752.22;5030965;28;20033;-74
2021/07/08 01:58:26;;;;;;;13.15;10.45;;;;;;;25.48;53.26;99707.88;5031226;28;20022;-75
2021/07/08 02:00:52;;;;;;;11.27;9.95;;;;;;;25.34;53.17;99686.00;5031041;28;20492;-75
2021/07/08 02:03:18;;;;;;;12.85;11.65;;;;;;;25.28;53.38;99689.78;5030931;28;20414;-75
2021/07/08 02:05:44;;;;;;;11.50;10.38;;;;;;;25.66;53.50;99755.22;5029679;28;20033;-74
2021/07/08 02:08:10;;;;;;;12.85;10.50;;;;;;;25.56;53.40;99741.66;5031136;28;20413;-75
2021/07/08 02:10:35;;;;;;;14.77;12.07;;;;;;;25.14;53.22;99685.16;5029712;28;20021;-75
2021/07/08 02:13:01;;;;;;;13.32;10.85;;;;;;;25.12;53.69;99698.13;5030984;28;20021;-74
2021/07/08 02:15:26;;;;;;;12.45;9.88;;;;;;;25.45;53.52;99737.34;5030994;28;20021;-75
2021/07/08 02:17:52;;;;;;;11.73;10.52;;;;;;;25.34;53.49;99701.41;5030848;28;20026;-76
2021/07/08 02:20:18;;;;;;;12.38;11.23;;;;;;;25.19;53.56;99679.75;5030866;28;20025;-74
2021/07/08 02:22:44;;;;;;;12.40;11.13;;;;;;;25.64;53.73;99750.03;5030801;28;20478;-74
2021/07/08 02:25:11;;;;;;;12.82;11.50;;;;;;;25.56;53.52;99747.09;5030822;28;20028;-76
2021/07/08 02:27:37;;;;;;;12.43;11.23;;;;;;;25.12;53.49;99677.34;5030560;28;20082;-76
2021/07/08 02:30:09;;;;;;;12.60;11.32;;;;;;;25.28;53.54;99703.31;5030709;28;20536;-75
2021/07/08 02:32:35;;;;;;;12.48;11.10;;;;;;;25.60;53.82;99750.88;5030694;28;20044;-74
2021/07/08 02:35:01;;;;;;;12.50;11.25;;;;;;;25.18;53.66;99694.34;5030841;28;20029;-75
2021/07/08 02:37:26;;;;;;;13.07;11.77;;;;;;;25.26;53.76;99713.53;5034440;28;20028;-73
2021/07/08 02:39:51;;;;;;;16.20;12.25;;;;;;;25.48;53.91;99743.03;5034428;28;20025;-77
2021/07/08 02:42:17;;;;;;;15.75;12.50;;;;;;;25.34;54.05;99723.84;5034312;28;20028;-73
2021/07/08 02:44:42;;;;;;;16.25;12.45;;;;;;;25.45;54.48;99761.69;5034292;28;20021;-77
2021/07/08 02:47:08;;;;;;;17.48;12.00;;;;;;;25.20;54.46;99716.50;5034126;28;20517;-75
2021/07/08 02:49:33;;;;;;;12.65;11.38;;;;;;;25.39;54.14;99750.06;5034059;28;20025;-75
2021/07/08 02:51:58;;;;;;;13.02;11.30;;;;;;;25.39;54.33;99743.84;5032918;28;20033;-74
2021/07/08 02:54:24;;;;;;;13.82;11.70;;;;;;;25.50;54.10;99753.56;5034061;28;20465;-76
2021/07/08 02:56:49;;;;;;;15.38;11.30;;;;;;;25.46;54.04;99747.91;5034074;28;20032;-74
2021/07/08 02:59:15;;;;;;;13.85;12.45;;;;;;;25.55;54.26;99765.19;5034067;28;20017;-76
2021/07/08 03:01:40;;;;;;;13.68;12.30;;;;;;;25.59;54.24;99765.47;5032470;28;20017;-73
2021/07/08 03:04:05;;;;;;;13.05;11.68;;;;;;;25.14;54.20;99699.50;5033781;28;20406;-73
2021/07/08 03:06:33;;;;;;;14.20;12.45;;;;;;;25.41;54.39;99733.56;5032646;28;20024;-76
2021/07/08 03:08:58;;;;;;;14.70;12.20;;;;;;;25.28;54.28;99724.91;5034019;28;20025;-74
2021/07/08 03:11:24;;;;;;;17.00;11.75;;;;;;;25.53;54.37;99763.84;5033806;28;20022;-74
2021/07/08 03:13:49;;;;;;;14.32;12.27;;;;;;;25.57;54.33;99776.56;5033780;28;20450;-73
2021/07/08 03:16:14;;;;;;;13.30;11.48;;;;;;;25.26;54.65;99723.53;5033794;28;20026;-74
2021/07/08 03:18:40;;;;;;;16.23;12.85;;;;;;;25.19;54.87;99710.31;5033683;28;20026;-76
2021/07/08 03:21:05;;;;;;;14.98;12.60;;;;;;;25.07;54.63;99696.25;5033477;28;20160;-75
2021/07/08 03:23:33;;;;;;;15.38;11.80;;;;;;;25.40;54.72;99743.56;5033616;28;20025;-75
2021/07/08 03:25:59;;;;;;;16.65;12.73;;;;;;;25.65;54.71;99781.44;5032018;28;20391;-75
2021/07/08 03:28:24;;;;;;;13.13;11.77;;;;;;;25.66;54.81;99779.56;5033489;28;20032;-75
2021/07/08 03:30:49;;;;;;;17.30;12.07;;;;;;;25.52;54.59;99751.41;5033280;28;20052;-75
2021/07/08 03:33:15;;;;;;;14.80;12.40;;;;;;;25.37;54.84;99730.59;5033408;28;20116;-76
2021/07/08 03:35:40;;;;;;;16.50;12.00;;;;;;;25.71;54.50;99776.84;5032100;28;20029;-75
2021/07/08 03:38:06;;;;;;;13.27;11.45;;;;;;;25.55;54.63;99748.97;5033323;28;20017;-75
2021/07/08 03:40:32;;;;;;;17.33;12.77;;;;;;;25.48;54.51;99728.69;5033180;28;20528;-77
2021/07/08 03:42:58;;;;;;;18.65;12.65;;;;;;;25.74;54.81;99781.72;5033231;28;20517;-73
2021/07/08 03:45:25;;;;;;;13.82;11.80;;;;;;;25.76;54.76;99787.66;5032811;28;20021;-75
2021/07/08 03:47:51;;;;;;;13.50;12.02;;;;;;;25.79;55.13;99789.00;5032110;28;20034;-75
2021/07/08 03:50:16;;;;;;;16.88;12.13;;;;;;;25.44;54.88;99730.31;5033084;28;20037;-75
2021/07/08 03:52:42;;;;;;;16.17;12.40;;;;;;;25.84;55.08;99795.22;5033079;28;20112;-74
2021/07/08 03:55:10;;;;;;;16.98;13.77;;;;;;;25.87;54.75;99791.97;5031923;28;20053;-76
2021/07/08 03:57:36;;;;;;;15.38;12.82;;;;;;;25.92;54.83;99800.09;5032776;28;20029;-76
2021/07/08 04:00:04;;;;;;;17.88;13.25;;;;;;;25.94;55.18;99802.53;5032899;28;20079;-75
2021/07/08 04:02:31;;;;;;;20.75;12.82;;;;;;;25.72;54.71;99759.53;5032702;28;20027;-75
2021/07/08 04:04:56;;;;;;;16.73;11.95;;;;;;;25.92;55.00;99788.44;5032846;28;20032;-75
2021/07/08 04:07:22;;;;;;;14.50;11.20;;;;;;;26.03;54.96;99800.09;5032799;28;20437;-75
2021/07/08 04:09:47;;;;;;;14.43;12.75;;;;;;;25.76;55.05;99766.03;5031447;28;20017;-76
2021/07/08 04:12:13;;;;;;;16.40;11.95;;;;;;;25.95;55.22;99785.19;5032361;28;20092;-75
2021/07/08 04:14:38;;;;;;;16.33;12.60;;;;;;;25.82;54.78;99759.53;5032413;28;20030;-75
2021/07/08 04:17:04;;;;;;;14.27;12.98;;;;;;;25.59;55.37;99751.94;5032494;28;20499;-75
2021/07/08 04:19:30;;;;;;;17.20;12.75;;;;;;;25.65;55.84;99781.44;5032831;28;20104;-76
2021/07/08 04:21:55;;;;;;;13.77;12.10;;;;;;;25.18;55.92;99702.47;5032615;28;20017;-76
2021/07/08 04:24:20;;;;;;;13.32;12.13;;;;;;;25.74;55.95;99803.34;5032439;28;20021;-76
2021/07/08 04:26:46;;;;;;;15.48;13.32;;;;;;;25.70;56.44;99799.56;5031103;28;20076;-75
2021/07/08 04:29:11;;;;;;;15.20;13.70;;;;;;;25.78;56.61;99809.03;5032291;28;20024;-75
2021/07/08 04:31:37;;;;;;;14.20;12.73;;;;;;;25.40;56.59;99773.31;5030786;28;20037;-76
2021/07/08 04:34:02;;;;;;;17.88;12.55;;;;;;;25.49;56.57;99770.88;5032025;28;20030;-76
2021/07/08 04:36:28;;;;;;;13.52;12.10;;;;;;;25.37;56.64;99737.91;5032109;28;20465;-76
2021/07/08 04:38:54;;;;;;;14.95;12.95;;;;;;;25.86;56.71;99795.75;5032392;28;20032;-75
2021/07/08 04:41:20;;;;;;;13.55;12.27;;;;;;;26.12;56.26;99817.41;5032039;28;20391;-75
2021/07/08 04:43:46;;;;;;;13.35;12.10;;;;;;;26.00;56.33;99789.78;5031792;28;20436;-75
2021/07/08 04:46:12;;;;;;;15.00;13.05;;;;;;;25.91;56.08;99765.19;5032019;28;20029;-75
2021/07/08 04:48:37;;;;;;;15.38;12.80;;;;;;;26.32;56.29;99822.78;5031994;28;20108;-75
2021/07/08 04:51:04;;;;;;;16.65;14.48;;;;;;;26.36;56.41;99820.34;5031747;28;20032;-76
2021/07/08 04:53:29;;;;;;;14.43;13.07;;;;;;;26.36;56.33;99826.56;5032035;28;20064;-75
2021/07/08 04:55:55;;;;;;;15.77;13.20;;;;;;;26.34;56.31;99814.41;5031820;28;20050;-76
2021/07/08 04:58:20;;;;;;;15.63;13.13;;;;;;;26.23;56.43;99786.53;5031475;28;20057;-75
2021/07/08 05:00:45;;;;;;;16.75;13.43;;;;;;;26.14;56.65;99761.09;5031823;28;20022;-76
2021/07/08 05:03:11;;;;;;;15.40;13.02;;;;;;;26.31;56.55;99774.31;5031895;28;20061;-76
2021/07/08 05:05:37;;;;;;;15.38;13.70;;;;;;;26.33;56.27;99772.97;5040634;28;20083;-75
2021/07/08 05:08:04;;;;;;;19.00;17.35;;;;;;;26.44;56.21;99779.97;5043580;28;20521;-75
2021/07/08 05:10:29;;;;;;;16.88;15.13;;;;;;;26.77;56.03;99832.69;5031547;28;20048;-75
2021/07/08 05:12:54;;;;;;;18.58;16.60;;;;;;;26.06;56.19;99696.72;5045225;28;20486;-75
2021/07/08 05:15:20;;;;;;;21.60;19.67;;;;;;;26.54;55.90;99779.13;5051253;28;20044;-74
2021/07/08 05:17:48;;;;;;;17.73;15.95;;;;;;;26.92;55.92;99827.19;5051146;28;20025;-74
2021/07/08 05:20:15;;;;;;;14.50;13.10;;;;;;;26.55;55.45;99772.63;5049580;28;20283;-73
2021/07/08 05:22:41;;;;;;;12.90;11.60;;;;;;;26.98;55.35;99832.63;5034582;28;20032;-75
2021/07/08 05:25:08;;;;;;;13.80;12.52;;;;;;;27.07;55.13;99836.38;5037885;28;20473;-76
2021/07/08 05:27:34;;;;;;;13.13;11.93;;;;;;;27.10;55.05;99827.69;5037464;28;20029;-76
2021/07/08 05:30:00;;;;;;;13.25;11.98;;;;;;;26.82;55.21;99780.38;5035261;28;20021;-76
2021/07/08 05:32:27;;;;;;;14.27;11.90;;;;;;;27.01;55.01;99816.63;5037719;28;20032;-75
2021/07/08 05:34:53;;;;;;;13.00;11.43;;;;;;;27.22;54.71;99845.22;5032347;28;20525;-76
2021/07/08 05:37:18;;;;;;;11.18;10.18;;;;;;;27.26;54.65;99844.66;5032567;28;20032;-74
2021/07/08 05:39:43;;;;;;;12.25;10.85;;;;;;;27.12;54.31;99815.47;5029784;28;20417;-73
2021/07/08 05:42:09;;;;;;;12.00;10.90;;;;;;;26.88;54.47;99779.25;5036661;28;20457;-73
2021/07/08 05:44:34;;;;;;;12.35;11.13;;;;;;;27.17;54.11;99809.19;5049712;28;20557;-74
2021/07/08 05:47:00;;;;;;;12.50;11.30;;;;;;;27.38;53.75;99848.66;5036308;28;20585;-76
2021/07/08 05:49:25;;;;;;;14.32;13.02;;;;;;;27.18;54.07;99830.59;5035665;28;20029;-76
2021/07/08 05:51:51;;;;;;;14.48;12.20;;;;;;;27.16;54.09;99813.00;5038266;28;20057;-75
2021/07/08 05:54:16;;;;;;;15.25;13.38;;;;;;;27.40;53.99;99853.78;5031001;28;20589;-75
2021/07/08 05:56:42;;;;;;;14.25;12.75;;;;;;;27.39;54.08;99854.88;5049754;28;20468;-73
2021/07/08 05:59:07;;;;;;;16.85;14.13;;;;;;;27.08;53.74;99808.97;5044798;28;20493;-73
2021/07/08 06:01:33;;;;;;;13.57;12.18;;;;;;;27.47;53.75;99860.50;5031597;28;20079;-75
2021/07/08 06:03:58;;;;;;;15.75;13.07;;;;;;;27.14;53.55;99804.34;5043636;28;20137;-76
2021/07/08 06:06:23;;;;;;;15.70;14.15;;;;;;;27.60;53.55;99864.53;5062019;28;20039;-73
2021/07/08 06:08:49;;;;;;;16.55;14.75;;;;;;;27.58;53.56;99849.63;5050413;28;20104;-74
2021/07/08 06:11:14;;;;;;;13.85;12.52;;;;;;;27.39;53.14;99811.50;5053796;28;20497;-75
2021/07/08 06:13:40;;;;;;;12.73;11.43;;;;;;;27.75;52.75;99858.22;5054169;28;20508;-76
2021/07/08 06:16:06;;;;;;;14.90;13.40;;;;;;;27.47;52.71;99814.41;5052891;28;20032;-74
2021/07/08 06:18:31;;;;;;;15.23;13.73;;;;;;;27.78;52.79;99873.91;5045155;28;20072;-77
2021/07/08 06:20:57;;;;;;;13.80;12.38;;;;;;;27.80;52.79;99869.81;5038051;28;20104;-76
2021/07/08 06:23:23;;;;;;;17.13;11.65;;;;;;;27.52;52.76;99824.44;5037901;28;20025;-74
2021/07/08 06:25:49;;;;;;;14.40;12.95;;;;;;;27.22;52.65;99769.31;5052918;28;20032;-76
2021/07/08 06:28:15;;;;;;;13.52;12.13;;;;;;;27.78;52.60;99847.59;5047993;28;20410;-76
2021/07/08 06:30:41;;;;;;;15.88;11.52;;;;;;;27.98;52.42;99873.75;5036374;28;20104;-76
2021/07/08 06:33:07;;;;;;;12.52;11.32;;;;;;;27.74;51.70;99824.03;5045960;28;20024;-76
2021/07/08 06:35:32;;;;;;;14.98;10.68;;;;;;;27.79;51.54;99815.84;5043312;28;20021;-75
2021/07/08 06:37:57;;;;;;;11.82;10.65;;;;;;;27.73;51.39;99798.78;5035121;28;20049;-76
2021/07/08 06:40:23;;;;;;;11.73;10.73;;;;;;;28.22;51.27;99873.78;5033079;28;20028;-74
2021/07/08 06:42:49;;;;;;;10.77;9.68;;;;;;;28.01;51.24;99835.19;5034759;28;20033;-75
2021/07/08 06:45:17;;;;;;;15.60;9.52;;;;;;;28.31;50.84;99874.84;5039487;28;20104;-76
2021/07/08 06:47:49;;;;;;;10.32;9.15;;;;;;;28.32;50.45;99876.47;5038051;28;20527;-76
2021/07/08 06:50:15;;;;;;;11.95;8.75;;;;;;;28.35;50.32;99875.09;5041390;28;20611;-74
2021/07/08 06:52:41;;;;;;;10.52;8.40;;;;;;;28.34;49.85;99876.19;5033910;28;20112;-75
2021/07/08 06:55:07;;;;;;;14.18;10.88;;;;;;;28.38;49.63;99879.94;5034656;28;20398;-76
2021/07/08 06:57:34;;;;;;;11.63;9.20;;;;;;;27.57;49.32;99729.47;5036684;28;20036;-74
2021/07/08 06:59:59;;;;;;;11.25;10.07;;;;;;;28.46;49.10;99852.16;5038714;28;20021;-75
2021/07/08 07:02:25;;;;;;;11.73;9.38;;;;;;;28.30;48.93;99824.34;5033483;28;20552;-73
2021/07/08 07:04:50;;;;;;;12.57;11.38;;;;;;;28.75;48.67;99873.81;5032823;28;20060;-76
2021/07/08 07:07:16;;;;;;;10.25;9.13;;;;;;;28.67;48.44;99845.38;5033984;28;20117;-76
2021/07/08 07:09:42;;;;;;;12.85;9.60;;;;;;;28.87;48.35;99863.38;5051721;28;20029;-76
2021/07/08 07:12:08;;;;;;;13.27;10.43;;;;;;;28.63;47.91;99817.19;5051651;28;20095;-75
2021/07/08 07:14:33;;;;;;;9.68;8.00;;;;;;;28.82;47.53;99851.72;5063193;28;20067;-75
2021/07/08 07:16:59;;;;;;;10.23;9.20;;;;;;;29.04;47.63;99871.06;5039044;28;20036;-75
2021/07/08 07:19:25;;;;;;;10.43;9.40;;;;;;;29.09;47.62;99876.44;5032759;28;20490;-74
2021/07/08 07:21:50;;;;;;;10.48;9.38;;;;;;;29.14;47.47;99873.66;5041310;28;20022;-75
2021/07/08 07:24:15;;;;;;;8.70;7.85;;;;;;;29.02;47.14;99859.69;5032982;28;20480;-74
2021/07/08 07:26:41;;;;;;;10.85;9.70;;;;;;;29.25;46.92;99874.31;5032789;28;20022;-74
2021/07/08 07:29:06;;;;;;;13.10;9.85;;;;;;;28.87;46.41;99816.38;5040781;28;20078;-74
2021/07/08 07:31:32;;;;;;;13.35;12.02;;;;;;;29.21;46.15;99868.66;5071588;28;20508;-75
2021/07/08 07:33:57;;;;;;;12.02;10.68;;;;;;;29.36;46.35;99879.34;5072612;28;20031;-75
2021/07/08 07:36:22;;;;;;;13.10;11.85;;;;;;;29.38;46.52;99881.75;5058074;28;20020;-75
2021/07/08 07:38:48;;;;;;;14.20;12.88;;;;;;;29.42;45.72;99866.47;5046544;28;20032;-75
2021/07/08 07:41:13;;;;;;;15.13;13.60;;;;;;;29.14;45.41;99813.03;5069002;28;20023;-74
2021/07/08 07:43:39;;;;;;;12.20;11.00;;;;;;;29.61;45.69;99870.00;5053044;28;20059;-76
2021/07/08 07:46:04;;;;;;;11.10;9.57;;;;;;;29.63;45.21;99870.53;5051549;28;20393;-76
2021/07/08 07:48:30;;;;;;;12.57;8.93;;;;;;;29.34;45.16;99815.44;5052891;28;20025;-73
2021/07/08 07:50:56;;;;;;;11.07;9.57;;;;;;;29.65;45.23;99871.03;5044806;28;20018;-74
2021/07/08 07:53:22;;;;;;;11.18;10.07;;;;;;;29.25;45.33;99809.88;5032451;28;20074;-75
2021/07/08 07:55:49;;;;;;;9.90;9.00;;;;;;;29.40;44.97;99830.59;5046489;28;20417;-75
2021/07/08 07:58:15;;;;;;;9.40;8.60;;;;;;;29.63;44.74;99862.34;5051595;28;20021;-76
2021/07/08 08:00:40;;;;;;;9.30;7.32;;;;;;;29.28;44.70;99813.91;5032425;28;20030;-76
2021/07/08 08:03:06;;;;;;;8.55;7.32;;;;;;;29.22;44.88;99818.63;5058462;28;20020;-75
2021/07/08 08:10:42;;;;;;;9.27;8.38;;;;;;;29.97;44.05;99853.94;5031725;28;20575;-74
2021/07/08 08:13:09;;;;;;;11.13;9.68;;;;;;;30.00;43.84;99822.56;5030874;28;20029;-73
2021/07/08 08:15:34;;;;;;;11.10;10.02;;;;;;;30.05;43.16;99784.38;5069720;28;20481;-75
2021/07/08 08:18:01;;;;;;;10.85;9.75;;;;;;;30.44;42.67;99819.31;5056968;28;20047;-73
2021/07/08 08:20:28;;;;;;;10.02;9.13;;;;;;;30.49;42.15;99808.34;5051889;28;20086;-73
2021/07/08 08:22:54;;;;;;;10.02;7.38;;;;;;;30.60;42.16;99787.97;5050786;28;20021;-76
2021/07/08 08:25:19;;;;;;;8.75;7.00;;;;;;;30.31;41.21;99728.31;5051981;28;20032;-81
2021/07/08 08:27:44;;;;;;;11.65;7.63;;;;;;;30.83;40.89;99786.13;5052025;28;20108;-81
2021/07/08 08:30:13;;;;;;;7.38;6.68;;;;;;;31.40;40.95;99849.25;5051898;28;20017;-81
2021/07/08 08:32:39;;;;;;;8.05;6.53;;;;;;;31.27;40.75;99831.81;5051238;28;20017;-79
2021/07/08 08:35:05;;;;;;;8.82;6.72;;;;;;;30.95;40.77;99810.94;5047577;28;20482;-80
2021/07/08 08:37:30;;;;;;;7.53;6.55;;;;;;;31.15;41.54;99855.25;5031563;28;20079;-81
2021/07/08 08:39:56;;;;;;;7.22;6.53;;;;;;;31.06;41.71;99854.34;5031884;28;20033;-82
2021/07/08 08:42:24;;;;;;;10.07;7.85;;;;;;;30.35;42.03;99763.91;5033339;28;20550;-80
2021/07/08 08:44:50;;;;;;;8.98;7.50;;;;;;;30.78;42.19;99829.03;5051628;28;20074;-81
2021/07/08 08:47:15;;;;;;;8.43;7.35;;;;;;;30.79;42.57;99853.28;5051673;28;20441;-79
2021/07/08 08:49:42;;;;;;;9.02;7.45;;;;;;;30.17;42.55;99781.97;5047994;28;20035;-82
2021/07/08 08:52:10;;;;;;;7.95;7.13;;;;;;;30.42;42.54;99837.06;5036495;28;20017;-81
2021/07/08 08:54:36;;;;;;;10.63;7.90;;;;;;;30.26;42.70;99831.09;5035064;28;20059;-79
2021/07/08 08:57:03;;;;;;;7.68;6.97;;;;;;;30.26;42.57;99793.78;5037240;28;20155;-81
2021/07/08 08:59:29;;;;;;;9.70;7.40;;;;;;;30.60;41.86;99828.06;5039711;28;20033;-81
2021/07/08 09:02:18;;;;;;;9.25;7.10;;;;;;;30.85;40.98;99852.06;5031649;28;20013;-80
2021/07/08 09:04:46;;;;;;;8.70;6.43;;;;;;;31.16;40.90;99859.59;5054051;28;20031;-80
2021/07/08 09:07:24;;;;;;;8.68;7.75;;;;;;;31.43;39.86;99847.84;5071579;28;20024;-80
2021/07/08 09:09:58;;;;;;;8.70;7.90;;;;;;;31.65;39.40;99844.31;5070225;28;20401;-79
2021/07/08 09:12:24;;;;;;;7.15;6.45;;;;;;;31.86;39.10;99837.25;5071441;28;20501;-81
2021/07/08 09:15:19;;;;;;;18.58;6.43;;;;;;;32.10;37.62;99843.19;5066474;28;20020;-80
2021/07/08 09:17:45;;;;;;;5.95;5.32;;;;;;;32.02;38.53;99848.63;5051520;28;20445;-80
2021/07/08 09:20:15;;;;;;;9.70;6.65;;;;;;;31.85;38.43;99850.09;5051414;28;20577;-79
2021/07/08 09:22:40;;;;;;;6.75;6.05;;;;;;;31.71;38.21;99840.34;5051524;28;20017;-81
2021/07/08 09:25:21;;;;;;;7.45;5.80;;;;;;;31.79;38.16;99843.16;5051260;28;20082;-79
2021/07/08 09:28:09;;;;;;;7.63;6.90;;;;;;;31.81;38.09;99848.28;5051264;28;20077;-80
2021/07/08 09:30:34;;;;;;;6.13;5.53;;;;;;;31.75;38.78;99833.16;5048735;28;20545;-80
2021/07/08 09:33:00;;;;;;;10.55;7.72;;;;;;;31.86;38.50;99804.47;5034411;28;20382;-80
2021/07/08 09:35:39;;;;;;;12.57;6.78;;;;;;;32.01;37.20;99765.88;5030493;28;20104;-81
2021/07/08 09:38:13;;;;;;;11.95;8.77;;;;;;;32.62;37.84;99829.75;5031423;28;20022;-82
2021/07/08 09:40:40;;;;;;;18.23;12.23;;;;;;;32.41;37.38;99785.00;5030706;28;20032;-81
2021/07/08 09:43:06;;;;;;;15.15;7.70;;;;;;;32.85;36.40;99842.25;5042769;28;20025;-80
2021/07/08 09:45:44;;;;;;;12.13;8.35;;;;;;;32.67;36.27;99802.28;5034869;28;20040;-80
2021/07/08 09:48:20;;;;;;;7.78;6.97;;;;;;;32.85;35.69;99795.78;5043796;28;20103;-80
2021/07/08 09:50:47;;;;;;;9.90;5.82;;;;;;;33.33;35.40;99829.63;5042214;28;20478;-81
2021/07/08 09:53:24;;;;;;;9.57;5.85;;;;;;;33.11;35.07;99801.25;5033644;28;20029;-81
2021/07/08 09:56:31;;;;;;;5.80;5.22;;;;;;;33.51;35.11;99824.97;5033867;28;20436;-81
2021/07/08 09:58:57;;;;;;;9.20;6.45;;;;;;;33.05;34.96;99749.75;5034188;28;20022;-81
2021/07/08 10:01:24;;;;;;;9.07;6.88;;;;;;;33.43;35.04;99826.56;5034461;28;20021;-81
2021/07/08 10:03:51;;;;;;;7.22;6.18;;;;;;;33.55;34.96;99804.84;5034958;28;20036;-82
2021/07/08 10:06:18;;;;;;;6.80;5.75;;;;;;;33.95;34.93;99810.88;5049905;28;20012;-81
2021/07/08 10:08:44;;;;;;;12.10;6.28;;;;;;;34.12;34.20;99790.84;5065045;28;20025;-82
2021/07/08 10:11:13;;;;;;;10.32;7.80;;;;;;;33.89;34.01;99823.16;5042140;28;20071;-79
2021/07/08 10:13:40;;;;;;;9.18;7.78;;;;;;;33.75;34.29;99828.00;5059097;28;20492;-82
2021/07/08 10:16:06;;;;;;;8.82;6.90;;;;;;;33.23;34.79;99797.88;5064029;28;20017;-81
2021/07/08 10:18:35;;;;;;;9.25;6.55;;;;;;;33.15;35.70;99832.31;5054488;28;20025;-79
2021/07/08 10:21:02;;;;;;;14.20;8.07;;;;;;;32.60;35.64;99763.66;5046714;28;20468;-81
2021/07/08 10:23:32;;;;;;;6.97;6.32;;;;;;;33.33;35.48;99833.16;5045303;28;20486;-81
2021/07/08 10:25:59;;;;;;;7.68;6.43;;;;;;;33.71;35.17;99813.34;5032766;28;20016;-81
2021/07/08 10:28:25;;;;;;;7.10;6.40;;;;;;;33.99;34.22;99814.59;5052441;28;20033;-81
2021/07/08 10:30:51;;;;;;;8.15;5.95;;;;;;;33.83;34.31;99809.97;5043822;28;20028;-81
2021/07/08 10:33:20;;;;;;;14.45;6.10;;;;;;;33.09;34.46;99743.31;5034259;28;20044;-80
2021/07/08 10:35:48;;;;;;;8.95;5.85;;;;;;;33.58;34.66;99795.16;5034200;28;20026;-81
2021/07/08 10:38:39;;;;;;;7.47;6.45;;;;;;;34.05;33.80;99813.28;5050713;28;20489;-80
2021/07/08 10:41:11;;;;;;;7.25;5.25;;;;;;;34.49;33.04;99799.44;5041646;28;20029;-82
2021/07/08 10:43:42;;;;;;;8.65;6.43;;;;;;;34.22;32.18;99748.59;5032955;28;20029;-81
2021/07/08 10:46:09;;;;;;;7.30;6.15;;;;;;;34.52;32.68;99802.31;5049369;28;20113;-81
2021/07/08 10:48:49;;;;;;;7.00;5.30;;;;;;;34.19;32.83;99802.13;5049080;28;20026;-80
2021/07/08 10:51:17;;;;;;;9.37;6.33;;;;;;;34.01;33.05;99789.59;5048128;28;20624;-79
2021/07/08 10:53:45;;;;;;;8.23;5.45;;;;;;;34.00;32.76;99731.25;5070675;28;20707;-81
2021/07/08 10:56:14;;;;;;;6.22;4.80;;;;;;;34.52;32.35;99750.22;5033087;28;20067;-80
2021/07/08 10:58:44;;;;;;;6.70;4.47;;;;;;;34.63;30.88;99728.69;5035048;28;20021;-81
2021/07/08 11:01:22;;;;;;;5.63;4.80;;;;;;;35.27;30.16;99791.50;5045535;28;20021;-81
2021/07/08 11:03:49;;;;;;;6.35;5.82;;;;;;;35.18;30.65;99780.59;5069760;28;20024;-79
2021/07/08 11:06:21;;;;;;;6.70;5.07;;;;;;;35.44;29.89;99801.56;5073670;28;20020;-79
2021/07/08 11:08:47;;;;;;;6.55;4.60;;;;;;;35.61;29.96;99790.41;5041738;28;20021;-79
2021/07/08 11:11:32;;;;;;;7.80;6.65;;;;;;;35.63;29.92;99761.44;5034226;28;20025;-81
2021/07/08 11:14:19;;;;;;;8.20;6.28;;;;;;;36.13;29.06;99787.13;5052224;28;20497;-82
2021/07/08 11:16:47;;;;;;;5.88;4.93;;;;;;;36.37;28.99;99776.16;5043951;28;20025;-81
2021/07/08 11:19:19;;;;;;;10.32;5.20;;;;;;;36.29;28.85;99791.63;5031993;28;20112;-81
2021/07/08 11:21:52;;;;;;;6.80;5.13;;;;;;;36.43;28.42;99785.00;5036441;28;20024;-81
2021/07/08 11:24:24;;;;;;;6.57;5.40;;;;;;;36.71;28.21;99779.56;5046820;28;20025;-83
2021/07/08 11:27:02;;;;;;;12.68;5.65;;;;;;;36.32;28.20;99737.06;5039159;28;20031;-79
2021/07/08 11:29:51;;;;;;;6.68;5.07;;;;;;;36.53;28.06;99759.78;5054548;28;20025;-81